<?xml version="1.0" encoding="UTF-8" standalone="no" ?>
<gpx xmlns="http://www.topografix.com/GPX/1/1" xmlns:xsi="http://www.w3.org/2001/XMLSchema-instance" xsi:schemaLocation="http://www.topografix.com/GPX/1/1 http://www.topografix.com/GPX/1/1/gpx.xsd" version="1.1" creator="VisuGPX - https://www.visugpx.com">
  <metadata>
    <name>Valmasque - Parcours jaune</name>
    <desc><![CDATA[Parc départemental de la Valmasque - Itinéraire de la randonnée balisée "parcours jaune"]]></desc>
  </metadata>
  <trk>
    <name><![CDATA[Valmasque - Parcours jaune_1]]></name>
    <trkseg>
      <trkpt lat="43.6055" lon="7.04003">
        <ele>184.111328125</ele>
        <time>2009-01-25T08:19:30Z</time>
      </trkpt>
      <trkpt lat="43.60552" lon="7.04002">
        <ele>184.13270568848</ele>
        <time>2009-01-25T08:19:32Z</time>
      </trkpt>
      <trkpt lat="43.60556" lon="7.03995">
        <ele>184.53002929688</ele>
        <time>2009-01-25T08:19:35Z</time>
      </trkpt>
      <trkpt lat="43.60557" lon="7.03993">
        <ele>184.9102935791</ele>
        <time>2009-01-25T08:19:36Z</time>
      </trkpt>
      <trkpt lat="43.60559" lon="7.03982">
        <ele>186.26307678223</ele>
        <time>2009-01-25T08:19:40Z</time>
      </trkpt>
      <trkpt lat="43.60558" lon="7.03972">
        <ele>187.22752380371</ele>
        <time>2009-01-25T08:19:44Z</time>
      </trkpt>
      <trkpt lat="43.60552" lon="7.03959">
        <ele>188.87675476074</ele>
        <time>2009-01-25T08:19:49Z</time>
      </trkpt>
      <trkpt lat="43.60547" lon="7.03953">
        <ele>190.41749572754</ele>
        <time>2009-01-25T08:19:54Z</time>
      </trkpt>
      <trkpt lat="43.60543" lon="7.0395">
        <ele>191.49267578125</ele>
        <time>2009-01-25T08:19:57Z</time>
      </trkpt>
      <trkpt lat="43.60543" lon="7.03934">
        <ele>193.25662231445</ele>
        <time>2009-01-25T08:20:03Z</time>
      </trkpt>
      <trkpt lat="43.60536" lon="7.03919">
        <ele>196.04327392578</ele>
        <time>2009-01-25T08:20:09Z</time>
      </trkpt>
      <trkpt lat="43.60533" lon="7.03912">
        <ele>197.25088500977</ele>
        <time>2009-01-25T08:20:12Z</time>
      </trkpt>
      <trkpt lat="43.60528" lon="7.03904">
        <ele>198.85815429688</ele>
        <time>2009-01-25T08:20:17Z</time>
      </trkpt>
      <trkpt lat="43.60527" lon="7.03893">
        <ele>199.72503662109</ele>
        <time>2009-01-25T08:20:22Z</time>
      </trkpt>
      <trkpt lat="43.60522" lon="7.03879">
        <ele>200</ele>
        <time>2009-01-25T08:20:28Z</time>
      </trkpt>
      <trkpt lat="43.60522" lon="7.03865">
        <ele>200</ele>
        <time>2009-01-25T08:20:34Z</time>
      </trkpt>
      <trkpt lat="43.60523" lon="7.03859">
        <ele>200</ele>
        <time>2009-01-25T08:20:37Z</time>
      </trkpt>
      <trkpt lat="43.60525" lon="7.03851">
        <ele>200</ele>
        <time>2009-01-25T08:20:41Z</time>
      </trkpt>
      <trkpt lat="43.60521" lon="7.03844">
        <ele>200</ele>
        <time>2009-01-25T08:20:45Z</time>
      </trkpt>
      <trkpt lat="43.60517" lon="7.03842">
        <ele>200</ele>
        <time>2009-01-25T08:20:47Z</time>
      </trkpt>
      <trkpt lat="43.60515" lon="7.0384">
        <ele>200</ele>
        <time>2009-01-25T08:20:48Z</time>
      </trkpt>
      <trkpt lat="43.60513" lon="7.03837">
        <ele>200</ele>
        <time>2009-01-25T08:20:50Z</time>
      </trkpt>
      <trkpt lat="43.60511" lon="7.03836">
        <ele>200</ele>
        <time>2009-01-25T08:20:51Z</time>
      </trkpt>
      <trkpt lat="43.60508" lon="7.03831">
        <ele>200</ele>
        <time>2009-01-25T08:20:57Z</time>
      </trkpt>
      <trkpt lat="43.60507" lon="7.03828">
        <ele>200</ele>
        <time>2009-01-25T08:21:05Z</time>
      </trkpt>
      <trkpt lat="43.60506" lon="7.03824">
        <ele>200</ele>
        <time>2009-01-25T08:21:11Z</time>
      </trkpt>
      <trkpt lat="43.60503" lon="7.03819">
        <ele>200</ele>
        <time>2009-01-25T08:21:13Z</time>
      </trkpt>
      <trkpt lat="43.60501" lon="7.03811">
        <ele>200</ele>
        <time>2009-01-25T08:21:18Z</time>
      </trkpt>
      <trkpt lat="43.60498" lon="7.03803">
        <ele>200.16809082031</ele>
        <time>2009-01-25T08:21:22Z</time>
      </trkpt>
      <trkpt lat="43.60494" lon="7.03793">
        <ele>200.41528320312</ele>
        <time>2009-01-25T08:21:27Z</time>
      </trkpt>
      <trkpt lat="43.60494" lon="7.03787">
        <ele>200.44274902344</ele>
        <time>2009-01-25T08:21:29Z</time>
      </trkpt>
      <trkpt lat="43.60492" lon="7.03777">
        <ele>200.57276916504</ele>
        <time>2009-01-25T08:21:33Z</time>
      </trkpt>
      <trkpt lat="43.6049" lon="7.0377">
        <ele>201.02081298828</ele>
        <time>2009-01-25T08:21:35Z</time>
      </trkpt>
      <trkpt lat="43.60488" lon="7.03761">
        <ele>201.4430847168</ele>
        <time>2009-01-25T08:21:38Z</time>
      </trkpt>
      <trkpt lat="43.60488" lon="7.03759">
        <ele>201.54608154297</ele>
        <time>2009-01-25T08:21:39Z</time>
      </trkpt>
      <trkpt lat="43.60488" lon="7.03756">
        <ele>201.64050292969</ele>
        <time>2009-01-25T08:21:40Z</time>
      </trkpt>
      <trkpt lat="43.60486" lon="7.03741">
        <ele>201.83531188965</ele>
        <time>2009-01-25T08:21:45Z</time>
      </trkpt>
      <trkpt lat="43.60483" lon="7.03726">
        <ele>201.91069030762</ele>
        <time>2009-01-25T08:21:50Z</time>
      </trkpt>
      <trkpt lat="43.60482" lon="7.03723">
        <ele>201.94937133789</ele>
        <time>2009-01-25T08:21:52Z</time>
      </trkpt>
      <trkpt lat="43.60474" lon="7.03716">
        <ele>202.95155334473</ele>
        <time>2009-01-25T08:21:56Z</time>
      </trkpt>
      <trkpt lat="43.60469" lon="7.03706">
        <ele>204.03739929199</ele>
        <time>2009-01-25T08:22:01Z</time>
      </trkpt>
      <trkpt lat="43.6046" lon="7.037">
        <ele>205.58749389648</ele>
        <time>2009-01-25T08:22:05Z</time>
      </trkpt>
      <trkpt lat="43.6045" lon="7.03698">
        <ele>207.03117370606</ele>
        <time>2009-01-25T08:22:09Z</time>
      </trkpt>
      <trkpt lat="43.60448" lon="7.03698">
        <ele>207.41055297852</ele>
        <time>2009-01-25T08:22:10Z</time>
      </trkpt>
      <trkpt lat="43.60436" lon="7.037">
        <ele>208.88833618164</ele>
        <time>2009-01-25T08:22:15Z</time>
      </trkpt>
      <trkpt lat="43.60424" lon="7.03704">
        <ele>210.16203308106</ele>
        <time>2009-01-25T08:22:21Z</time>
      </trkpt>
      <trkpt lat="43.60415" lon="7.03705">
        <ele>210.88021850586</ele>
        <time>2009-01-25T08:22:26Z</time>
      </trkpt>
      <trkpt lat="43.60403" lon="7.03709">
        <ele>210.93515014648</ele>
        <time>2009-01-25T08:22:32Z</time>
      </trkpt>
      <trkpt lat="43.60391" lon="7.03712">
        <ele>210.99865722656</ele>
        <time>2009-01-25T08:22:39Z</time>
      </trkpt>
      <trkpt lat="43.60388" lon="7.03716">
        <ele>210.75205993652</ele>
        <time>2009-01-25T08:22:41Z</time>
      </trkpt>
      <trkpt lat="43.60375" lon="7.03716">
        <ele>211.26231384277</ele>
        <time>2009-01-25T08:22:47Z</time>
      </trkpt>
      <trkpt lat="43.6036" lon="7.03713">
        <ele>212.36076354981</ele>
        <time>2009-01-25T08:22:54Z</time>
      </trkpt>
      <trkpt lat="43.6035" lon="7.03712">
        <ele>211.93418884277</ele>
        <time>2009-01-25T08:22:59Z</time>
      </trkpt>
      <trkpt lat="43.60342" lon="7.03708">
        <ele>211.95452880859</ele>
        <time>2009-01-25T08:23:03Z</time>
      </trkpt>
      <trkpt lat="43.60325" lon="7.03705">
        <ele>210.01095581055</ele>
        <time>2009-01-25T08:23:10Z</time>
      </trkpt>
      <trkpt lat="43.60312" lon="7.037">
        <ele>207.42012023926</ele>
        <time>2009-01-25T08:23:16Z</time>
      </trkpt>
      <trkpt lat="43.603" lon="7.03689">
        <ele>205.29930114746</ele>
        <time>2009-01-25T08:23:23Z</time>
      </trkpt>
      <trkpt lat="43.6029" lon="7.03674">
        <ele>204.10440063477</ele>
        <time>2009-01-25T08:23:29Z</time>
      </trkpt>
      <trkpt lat="43.60286" lon="7.03662">
        <ele>203.70367431641</ele>
        <time>2009-01-25T08:23:33Z</time>
      </trkpt>
      <trkpt lat="43.60283" lon="7.0365">
        <ele>203.57836914062</ele>
        <time>2009-01-25T08:23:38Z</time>
      </trkpt>
      <trkpt lat="43.60283" lon="7.03646">
        <ele>203.66076660156</ele>
        <time>2009-01-25T08:23:40Z</time>
      </trkpt>
      <trkpt lat="43.60283" lon="7.03635">
        <ele>203.87786865234</ele>
        <time>2009-01-25T08:23:44Z</time>
      </trkpt>
      <trkpt lat="43.60281" lon="7.03622">
        <ele>203.64721679688</ele>
        <time>2009-01-25T08:23:49Z</time>
      </trkpt>
      <trkpt lat="43.60275" lon="7.03607">
        <ele>203.017578125</ele>
        <time>2009-01-25T08:23:54Z</time>
      </trkpt>
      <trkpt lat="43.60271" lon="7.03591">
        <ele>203.14082336426</ele>
        <time>2009-01-25T08:24:00Z</time>
      </trkpt>
      <trkpt lat="43.60275" lon="7.03577">
        <ele>203.61991882324</ele>
        <time>2009-01-25T08:24:06Z</time>
      </trkpt>
      <trkpt lat="43.60277" lon="7.03571">
        <ele>203.87818908691</ele>
        <time>2009-01-25T08:24:09Z</time>
      </trkpt>
      <trkpt lat="43.60282" lon="7.03558">
        <ele>205.11868286133</ele>
        <time>2009-01-25T08:24:15Z</time>
      </trkpt>
      <trkpt lat="43.60284" lon="7.03549">
        <ele>205.97172546387</ele>
        <time>2009-01-25T08:24:19Z</time>
      </trkpt>
      <trkpt lat="43.60287" lon="7.03539">
        <ele>206.88600158691</ele>
        <time>2009-01-25T08:24:23Z</time>
      </trkpt>
      <trkpt lat="43.60293" lon="7.03528">
        <ele>208.99209594727</ele>
        <time>2009-01-25T08:24:29Z</time>
      </trkpt>
      <trkpt lat="43.603" lon="7.03523">
        <ele>211.27203369141</ele>
        <time>2009-01-25T08:24:33Z</time>
      </trkpt>
      <trkpt lat="43.6031" lon="7.03515">
        <ele>214.40640258789</ele>
        <time>2009-01-25T08:24:38Z</time>
      </trkpt>
      <trkpt lat="43.60318" lon="7.03506">
        <ele>216.57022094727</ele>
        <time>2009-01-25T08:24:44Z</time>
      </trkpt>
      <trkpt lat="43.60326" lon="7.035">
        <ele>218.33447265625</ele>
        <time>2009-01-25T08:24:49Z</time>
      </trkpt>
      <trkpt lat="43.60339" lon="7.03491">
        <ele>220</ele>
        <time>2009-01-25T08:24:56Z</time>
      </trkpt>
      <trkpt lat="43.60342" lon="7.03488">
        <ele>220</ele>
        <time>2009-01-25T08:24:58Z</time>
      </trkpt>
      <trkpt lat="43.60347" lon="7.03475">
        <ele>220</ele>
        <time>2009-01-25T08:25:05Z</time>
      </trkpt>
      <trkpt lat="43.60351" lon="7.03468">
        <ele>220</ele>
        <time>2009-01-25T08:25:09Z</time>
      </trkpt>
      <trkpt lat="43.60352" lon="7.03466">
        <ele>220</ele>
        <time>2009-01-25T08:25:10Z</time>
      </trkpt>
      <trkpt lat="43.60352" lon="7.03453">
        <ele>220</ele>
        <time>2009-01-25T08:25:16Z</time>
      </trkpt>
      <trkpt lat="43.6035" lon="7.03447">
        <ele>220</ele>
        <time>2009-01-25T08:25:18Z</time>
      </trkpt>
      <trkpt lat="43.60352" lon="7.03432">
        <ele>220</ele>
        <time>2009-01-25T08:25:25Z</time>
      </trkpt>
      <trkpt lat="43.60356" lon="7.03428">
        <ele>220</ele>
        <time>2009-01-25T08:25:31Z</time>
      </trkpt>
      <trkpt lat="43.60366" lon="7.03422">
        <ele>220</ele>
        <time>2009-01-25T08:25:37Z</time>
      </trkpt>
      <trkpt lat="43.60372" lon="7.03417">
        <ele>220</ele>
        <time>2009-01-25T08:25:42Z</time>
      </trkpt>
      <trkpt lat="43.60378" lon="7.03412">
        <ele>220</ele>
        <time>2009-01-25T08:25:46Z</time>
      </trkpt>
      <trkpt lat="43.60379" lon="7.03405">
        <ele>220</ele>
        <time>2009-01-25T08:25:50Z</time>
      </trkpt>
      <trkpt lat="43.60376" lon="7.03392">
        <ele>220</ele>
        <time>2009-01-25T08:25:56Z</time>
      </trkpt>
      <trkpt lat="43.60375" lon="7.0339">
        <ele>220</ele>
        <time>2009-01-25T08:25:57Z</time>
      </trkpt>
      <trkpt lat="43.60379" lon="7.03375">
        <ele>220</ele>
        <time>2009-01-25T08:26:04Z</time>
      </trkpt>
      <trkpt lat="43.60388" lon="7.03364">
        <ele>220</ele>
        <time>2009-01-25T08:26:10Z</time>
      </trkpt>
      <trkpt lat="43.6039" lon="7.03358">
        <ele>220</ele>
        <time>2009-01-25T08:26:13Z</time>
      </trkpt>
      <trkpt lat="43.60394" lon="7.03339">
        <ele>220</ele>
        <time>2009-01-25T08:26:21Z</time>
      </trkpt>
      <trkpt lat="43.60394" lon="7.03322">
        <ele>219.64337158203</ele>
        <time>2009-01-25T08:26:26Z</time>
      </trkpt>
      <trkpt lat="43.60392" lon="7.03305">
        <ele>219.48547363281</ele>
        <time>2009-01-25T08:26:31Z</time>
      </trkpt>
      <trkpt lat="43.60382" lon="7.03287">
        <ele>218.98530578613</ele>
        <time>2009-01-25T08:26:37Z</time>
      </trkpt>
      <trkpt lat="43.60374" lon="7.03276">
        <ele>218.91578674316</ele>
        <time>2009-01-25T08:26:42Z</time>
      </trkpt>
      <trkpt lat="43.60369" lon="7.03265">
        <ele>218.84196472168</ele>
        <time>2009-01-25T08:26:46Z</time>
      </trkpt>
      <trkpt lat="43.60366" lon="7.03257">
        <ele>219.04348754883</ele>
        <time>2009-01-25T08:26:49Z</time>
      </trkpt>
      <trkpt lat="43.60365" lon="7.03242">
        <ele>218.01556396484</ele>
        <time>2009-01-25T08:26:54Z</time>
      </trkpt>
      <trkpt lat="43.60365" lon="7.03239">
        <ele>217.57611083984</ele>
        <time>2009-01-25T08:26:55Z</time>
      </trkpt>
      <trkpt lat="43.60368" lon="7.03222">
        <ele>214.27334594727</ele>
        <time>2009-01-25T08:27:01Z</time>
      </trkpt>
      <trkpt lat="43.60369" lon="7.0321">
        <ele>212.68701171875</ele>
        <time>2009-01-25T08:27:05Z</time>
      </trkpt>
      <trkpt lat="43.60364" lon="7.03191">
        <ele>211.89167785644</ele>
        <time>2009-01-25T08:27:11Z</time>
      </trkpt>
      <trkpt lat="43.6036" lon="7.03186">
        <ele>211.87898254394</ele>
        <time>2009-01-25T08:27:13Z</time>
      </trkpt>
      <trkpt lat="43.60346" lon="7.0317">
        <ele>211.60874938965</ele>
        <time>2009-01-25T08:27:20Z</time>
      </trkpt>
      <trkpt lat="43.60336" lon="7.03161">
        <ele>212.20027160644</ele>
        <time>2009-01-25T08:27:26Z</time>
      </trkpt>
      <trkpt lat="43.60332" lon="7.03156">
        <ele>212.20806884766</ele>
        <time>2009-01-25T08:27:28Z</time>
      </trkpt>
      <trkpt lat="43.60328" lon="7.03145">
        <ele>211.26049804688</ele>
        <time>2009-01-25T08:27:32Z</time>
      </trkpt>
      <trkpt lat="43.6032" lon="7.03135">
        <ele>210.12648010254</ele>
        <time>2009-01-25T08:27:38Z</time>
      </trkpt>
      <trkpt lat="43.6031" lon="7.03125">
        <ele>209.10227966309</ele>
        <time>2009-01-25T08:27:43Z</time>
      </trkpt>
      <trkpt lat="43.60306" lon="7.0312">
        <ele>208.64308166504</ele>
        <time>2009-01-25T08:27:45Z</time>
      </trkpt>
      <trkpt lat="43.60299" lon="7.03102">
        <ele>206.82963562012</ele>
        <time>2009-01-25T08:27:51Z</time>
      </trkpt>
      <trkpt lat="43.60294" lon="7.03086">
        <ele>205.37051391602</ele>
        <time>2009-01-25T08:27:56Z</time>
      </trkpt>
      <trkpt lat="43.60292" lon="7.03079">
        <ele>204.78565979004</ele>
        <time>2009-01-25T08:27:58Z</time>
      </trkpt>
      <trkpt lat="43.6029" lon="7.03064">
        <ele>203.89765930176</ele>
        <time>2009-01-25T08:28:03Z</time>
      </trkpt>
      <trkpt lat="43.60291" lon="7.03045">
        <ele>202.92892456055</ele>
        <time>2009-01-25T08:28:09Z</time>
      </trkpt>
      <trkpt lat="43.60291" lon="7.03038">
        <ele>202.53814697266</ele>
        <time>2009-01-25T08:28:12Z</time>
      </trkpt>
      <trkpt lat="43.60287" lon="7.03032">
        <ele>202.20622253418</ele>
        <time>2009-01-25T08:28:15Z</time>
      </trkpt>
      <trkpt lat="43.60277" lon="7.03028">
        <ele>201.97644042969</ele>
        <time>2009-01-25T08:28:19Z</time>
      </trkpt>
      <trkpt lat="43.60258" lon="7.03024">
        <ele>201.14833068848</ele>
        <time>2009-01-25T08:28:25Z</time>
      </trkpt>
      <trkpt lat="43.60243" lon="7.03025">
        <ele>200.66450500488</ele>
        <time>2009-01-25T08:28:30Z</time>
      </trkpt>
      <trkpt lat="43.60231" lon="7.03036">
        <ele>200.40791320801</ele>
        <time>2009-01-25T08:28:35Z</time>
      </trkpt>
      <trkpt lat="43.60227" lon="7.03041">
        <ele>200.26177978516</ele>
        <time>2009-01-25T08:28:37Z</time>
      </trkpt>
      <trkpt lat="43.60223" lon="7.03054">
        <ele>200.02798461914</ele>
        <time>2009-01-25T08:28:42Z</time>
      </trkpt>
      <trkpt lat="43.60219" lon="7.0307">
        <ele>200</ele>
        <time>2009-01-25T08:28:48Z</time>
      </trkpt>
      <trkpt lat="43.60219" lon="7.03073">
        <ele>200</ele>
        <time>2009-01-25T08:28:49Z</time>
      </trkpt>
      <trkpt lat="43.60213" lon="7.03091">
        <ele>200</ele>
        <time>2009-01-25T08:28:54Z</time>
      </trkpt>
      <trkpt lat="43.60209" lon="7.03102">
        <ele>200</ele>
        <time>2009-01-25T08:28:58Z</time>
      </trkpt>
      <trkpt lat="43.60202" lon="7.03114">
        <ele>200.09317016602</ele>
        <time>2009-01-25T08:29:02Z</time>
      </trkpt>
      <trkpt lat="43.60196" lon="7.0311">
        <ele>200</ele>
        <time>2009-01-25T08:29:06Z</time>
      </trkpt>
      <trkpt lat="43.60196" lon="7.03106">
        <ele>200</ele>
        <time>2009-01-25T08:29:07Z</time>
      </trkpt>
      <trkpt lat="43.60196" lon="7.031">
        <ele>200</ele>
        <time>2009-01-25T08:29:09Z</time>
      </trkpt>
      <trkpt lat="43.60197" lon="7.03085">
        <ele>200</ele>
        <time>2009-01-25T08:29:14Z</time>
      </trkpt>
      <trkpt lat="43.60195" lon="7.03073">
        <ele>200</ele>
        <time>2009-01-25T08:29:18Z</time>
      </trkpt>
      <trkpt lat="43.6019" lon="7.03057">
        <ele>199.03385925293</ele>
        <time>2009-01-25T08:29:24Z</time>
      </trkpt>
      <trkpt lat="43.60184" lon="7.03038">
        <ele>196.44396972656</ele>
        <time>2009-01-25T08:29:30Z</time>
      </trkpt>
      <trkpt lat="43.60181" lon="7.03022">
        <ele>194.15379333496</ele>
        <time>2009-01-25T08:29:35Z</time>
      </trkpt>
      <trkpt lat="43.60183" lon="7.0301">
        <ele>193.3157043457</ele>
        <time>2009-01-25T08:29:39Z</time>
      </trkpt>
      <trkpt lat="43.60188" lon="7.03">
        <ele>193.98107910156</ele>
        <time>2009-01-25T08:29:43Z</time>
      </trkpt>
      <trkpt lat="43.60197" lon="7.02987">
        <ele>194.71766662598</ele>
        <time>2009-01-25T08:29:48Z</time>
      </trkpt>
      <trkpt lat="43.60206" lon="7.02976">
        <ele>193.74781799316</ele>
        <time>2009-01-25T08:29:53Z</time>
      </trkpt>
      <trkpt lat="43.60214" lon="7.02968">
        <ele>192.92781066894</ele>
        <time>2009-01-25T08:29:57Z</time>
      </trkpt>
      <trkpt lat="43.60218" lon="7.02964">
        <ele>192.3232421875</ele>
        <time>2009-01-25T08:29:59Z</time>
      </trkpt>
      <trkpt lat="43.60229" lon="7.02953">
        <ele>189.64569091797</ele>
        <time>2009-01-25T08:30:05Z</time>
      </trkpt>
      <trkpt lat="43.60236" lon="7.02951">
        <ele>189.30802917481</ele>
        <time>2009-01-25T08:30:08Z</time>
      </trkpt>
      <trkpt lat="43.60248" lon="7.02949">
        <ele>189.40850830078</ele>
        <time>2009-01-25T08:30:14Z</time>
      </trkpt>
      <trkpt lat="43.60255" lon="7.02948">
        <ele>189.1513671875</ele>
        <time>2009-01-25T08:30:17Z</time>
      </trkpt>
      <trkpt lat="43.60257" lon="7.02948">
        <ele>189.27496337891</ele>
        <time>2009-01-25T08:30:19Z</time>
      </trkpt>
      <trkpt lat="43.60267" lon="7.02949">
        <ele>189.44491577148</ele>
        <time>2009-01-25T08:30:23Z</time>
      </trkpt>
      <trkpt lat="43.60283" lon="7.0295">
        <ele>189.22666931152</ele>
        <time>2009-01-25T08:30:28Z</time>
      </trkpt>
      <trkpt lat="43.60291" lon="7.0295">
        <ele>188.29455566406</ele>
        <time>2009-01-25T08:30:32Z</time>
      </trkpt>
      <trkpt lat="43.60292" lon="7.0295">
        <ele>188.06280517578</ele>
        <time>2009-01-25T08:30:33Z</time>
      </trkpt>
      <trkpt lat="43.60298" lon="7.02948">
        <ele>186.97619628906</ele>
        <time>2009-01-25T08:30:36Z</time>
      </trkpt>
      <trkpt lat="43.60308" lon="7.02951">
        <ele>186.81993103027</ele>
        <time>2009-01-25T08:30:42Z</time>
      </trkpt>
      <trkpt lat="43.60312" lon="7.02949">
        <ele>186.12931823731</ele>
        <time>2009-01-25T08:30:44Z</time>
      </trkpt>
      <trkpt lat="43.60329" lon="7.02944">
        <ele>184.03759765625</ele>
        <time>2009-01-25T08:30:51Z</time>
      </trkpt>
      <trkpt lat="43.60331" lon="7.02944">
        <ele>183.96893310547</ele>
        <time>2009-01-25T08:30:52Z</time>
      </trkpt>
      <trkpt lat="43.60347" lon="7.02947">
        <ele>182.47793579102</ele>
        <time>2009-01-25T08:30:58Z</time>
      </trkpt>
      <trkpt lat="43.60359" lon="7.0295">
        <ele>181.2360534668</ele>
        <time>2009-01-25T08:31:02Z</time>
      </trkpt>
      <trkpt lat="43.60377" lon="7.02959">
        <ele>177.59803771973</ele>
        <time>2009-01-25T08:31:07Z</time>
      </trkpt>
      <trkpt lat="43.60395" lon="7.02969">
        <ele>174.00514221191</ele>
        <time>2009-01-25T08:31:13Z</time>
      </trkpt>
      <trkpt lat="43.60403" lon="7.02983">
        <ele>172.77969360352</ele>
        <time>2009-01-25T08:31:18Z</time>
      </trkpt>
      <trkpt lat="43.60413" lon="7.02998">
        <ele>170.90664672852</ele>
        <time>2009-01-25T08:31:23Z</time>
      </trkpt>
      <trkpt lat="43.60418" lon="7.03013">
        <ele>172.11407470703</ele>
        <time>2009-01-25T08:31:28Z</time>
      </trkpt>
      <trkpt lat="43.60421" lon="7.03028">
        <ele>173.98861694336</ele>
        <time>2009-01-25T08:31:33Z</time>
      </trkpt>
      <trkpt lat="43.60424" lon="7.03045">
        <ele>176.19616699219</ele>
        <time>2009-01-25T08:31:38Z</time>
      </trkpt>
      <trkpt lat="43.6043" lon="7.03055">
        <ele>176.443359375</ele>
        <time>2009-01-25T08:31:43Z</time>
      </trkpt>
      <trkpt lat="43.60439" lon="7.03057">
        <ele>174.52812194824</ele>
        <time>2009-01-25T08:31:47Z</time>
      </trkpt>
      <trkpt lat="43.6045" lon="7.0305">
        <ele>170.36291503906</ele>
        <time>2009-01-25T08:31:53Z</time>
      </trkpt>
      <trkpt lat="43.60465" lon="7.03041">
        <ele>164.54016113281</ele>
        <time>2009-01-25T08:31:59Z</time>
      </trkpt>
      <trkpt lat="43.60474" lon="7.03039">
        <ele>161.85482788086</ele>
        <time>2009-01-25T08:32:03Z</time>
      </trkpt>
      <trkpt lat="43.60488" lon="7.03037">
        <ele>160.16004943848</ele>
        <time>2009-01-25T08:32:08Z</time>
      </trkpt>
      <trkpt lat="43.60502" lon="7.03037">
        <ele>159</ele>
        <time>2009-01-25T08:32:13Z</time>
      </trkpt>
      <trkpt lat="43.60519" lon="7.03043">
        <ele>159</ele>
        <time>2009-01-25T08:32:20Z</time>
      </trkpt>
      <trkpt lat="43.60531" lon="7.0305">
        <ele>159</ele>
        <time>2009-01-25T08:32:24Z</time>
      </trkpt>
      <trkpt lat="43.60535" lon="7.03053">
        <ele>159</ele>
        <time>2009-01-25T08:32:26Z</time>
      </trkpt>
      <trkpt lat="43.60551" lon="7.03061">
        <ele>159</ele>
        <time>2009-01-25T08:32:32Z</time>
      </trkpt>
      <trkpt lat="43.60565" lon="7.03071">
        <ele>159</ele>
        <time>2009-01-25T08:32:37Z</time>
      </trkpt>
      <trkpt lat="43.60578" lon="7.03081">
        <ele>159</ele>
        <time>2009-01-25T08:32:42Z</time>
      </trkpt>
      <trkpt lat="43.60584" lon="7.03091">
        <ele>159</ele>
        <time>2009-01-25T08:32:46Z</time>
      </trkpt>
      <trkpt lat="43.60594" lon="7.031">
        <ele>159</ele>
        <time>2009-01-25T08:32:50Z</time>
      </trkpt>
      <trkpt lat="43.60608" lon="7.03113">
        <ele>159</ele>
        <time>2009-01-25T08:32:55Z</time>
      </trkpt>
      <trkpt lat="43.60617" lon="7.03125">
        <ele>159</ele>
        <time>2009-01-25T08:33:01Z</time>
      </trkpt>
      <trkpt lat="43.60626" lon="7.03136">
        <ele>159</ele>
        <time>2009-01-25T08:33:05Z</time>
      </trkpt>
      <trkpt lat="43.60636" lon="7.03148">
        <ele>159</ele>
        <time>2009-01-25T08:33:10Z</time>
      </trkpt>
      <trkpt lat="43.60647" lon="7.03158">
        <ele>159</ele>
        <time>2009-01-25T08:33:15Z</time>
      </trkpt>
      <trkpt lat="43.60657" lon="7.03171">
        <ele>159</ele>
        <time>2009-01-25T08:33:20Z</time>
      </trkpt>
      <trkpt lat="43.60668" lon="7.03192">
        <ele>159</ele>
        <time>2009-01-25T08:33:26Z</time>
      </trkpt>
      <trkpt lat="43.60672" lon="7.0321">
        <ele>159</ele>
        <time>2009-01-25T08:33:31Z</time>
      </trkpt>
      <trkpt lat="43.6068" lon="7.03229">
        <ele>159</ele>
        <time>2009-01-25T08:33:36Z</time>
      </trkpt>
      <trkpt lat="43.60687" lon="7.0324">
        <ele>159</ele>
        <time>2009-01-25T08:33:41Z</time>
      </trkpt>
      <trkpt lat="43.60695" lon="7.03249">
        <ele>159</ele>
        <time>2009-01-25T08:33:45Z</time>
      </trkpt>
      <trkpt lat="43.60704" lon="7.03261">
        <ele>159</ele>
        <time>2009-01-25T08:33:49Z</time>
      </trkpt>
      <trkpt lat="43.60709" lon="7.0328">
        <ele>159</ele>
        <time>2009-01-25T08:33:54Z</time>
      </trkpt>
      <trkpt lat="43.60701" lon="7.03293">
        <ele>159</ele>
        <time>2009-01-25T08:33:59Z</time>
      </trkpt>
      <trkpt lat="43.60692" lon="7.03301">
        <ele>159.07873535156</ele>
        <time>2009-01-25T08:34:04Z</time>
      </trkpt>
      <trkpt lat="43.60697" lon="7.03311">
        <ele>159</ele>
        <time>2009-01-25T08:34:09Z</time>
      </trkpt>
      <trkpt lat="43.60711" lon="7.03315">
        <ele>159</ele>
        <time>2009-01-25T08:34:13Z</time>
      </trkpt>
      <trkpt lat="43.60727" lon="7.03325">
        <ele>159</ele>
        <time>2009-01-25T08:34:19Z</time>
      </trkpt>
      <trkpt lat="43.60733" lon="7.03333">
        <ele>159</ele>
        <time>2009-01-25T08:34:23Z</time>
      </trkpt>
      <trkpt lat="43.6074" lon="7.03338">
        <ele>159</ele>
        <time>2009-01-25T08:34:26Z</time>
      </trkpt>
      <trkpt lat="43.60751" lon="7.0335">
        <ele>159</ele>
        <time>2009-01-25T08:34:33Z</time>
      </trkpt>
      <trkpt lat="43.6076" lon="7.03361">
        <ele>159</ele>
        <time>2009-01-25T08:34:37Z</time>
      </trkpt>
      <trkpt lat="43.6076" lon="7.03374">
        <ele>159</ele>
        <time>2009-01-25T08:34:41Z</time>
      </trkpt>
      <trkpt lat="43.60757" lon="7.03388">
        <ele>159</ele>
        <time>2009-01-25T08:34:45Z</time>
      </trkpt>
      <trkpt lat="43.60756" lon="7.03391">
        <ele>159</ele>
        <time>2009-01-25T08:34:46Z</time>
      </trkpt>
      <trkpt lat="43.60749" lon="7.03401">
        <ele>159</ele>
        <time>2009-01-25T08:34:50Z</time>
      </trkpt>
      <trkpt lat="43.60741" lon="7.0341">
        <ele>159</ele>
        <time>2009-01-25T08:34:54Z</time>
      </trkpt>
      <trkpt lat="43.60733" lon="7.03425">
        <ele>159</ele>
        <time>2009-01-25T08:34:59Z</time>
      </trkpt>
      <trkpt lat="43.60718" lon="7.03441">
        <ele>159.12725830078</ele>
        <time>2009-01-25T08:35:05Z</time>
      </trkpt>
      <trkpt lat="43.60712" lon="7.03451">
        <ele>159.36614990234</ele>
        <time>2009-01-25T08:35:09Z</time>
      </trkpt>
      <trkpt lat="43.60711" lon="7.03454">
        <ele>159.42108154297</ele>
        <time>2009-01-25T08:35:10Z</time>
      </trkpt>
      <trkpt lat="43.60701" lon="7.03473">
        <ele>159.79847717285</ele>
        <time>2009-01-25T08:35:16Z</time>
      </trkpt>
      <trkpt lat="43.60691" lon="7.03489">
        <ele>161.58963012695</ele>
        <time>2009-01-25T08:35:21Z</time>
      </trkpt>
      <trkpt lat="43.60688" lon="7.03494">
        <ele>162.72601318359</ele>
        <time>2009-01-25T08:35:23Z</time>
      </trkpt>
      <trkpt lat="43.6069" lon="7.03502">
        <ele>162.6344909668</ele>
        <time>2009-01-25T08:35:27Z</time>
      </trkpt>
      <trkpt lat="43.607" lon="7.03509">
        <ele>161.142578125</ele>
        <time>2009-01-25T08:35:32Z</time>
      </trkpt>
      <trkpt lat="43.60706" lon="7.03511">
        <ele>160.79158020019</ele>
        <time>2009-01-25T08:35:35Z</time>
      </trkpt>
      <trkpt lat="43.60717" lon="7.03516">
        <ele>160.05551147461</ele>
        <time>2009-01-25T08:35:41Z</time>
      </trkpt>
      <trkpt lat="43.60721" lon="7.03518">
        <ele>159.77250671387</ele>
        <time>2009-01-25T08:35:43Z</time>
      </trkpt>
      <trkpt lat="43.6073" lon="7.03525">
        <ele>159.6379699707</ele>
        <time>2009-01-25T08:35:49Z</time>
      </trkpt>
      <trkpt lat="43.60738" lon="7.03532">
        <ele>159.41857910156</ele>
        <time>2009-01-25T08:35:53Z</time>
      </trkpt>
      <trkpt lat="43.60746" lon="7.03545">
        <ele>159.15765380859</ele>
        <time>2009-01-25T08:35:58Z</time>
      </trkpt>
      <trkpt lat="43.6075" lon="7.03561">
        <ele>159.17826843262</ele>
        <time>2009-01-25T08:36:03Z</time>
      </trkpt>
      <trkpt lat="43.60754" lon="7.03576">
        <ele>159.63238525391</ele>
        <time>2009-01-25T08:36:08Z</time>
      </trkpt>
      <trkpt lat="43.60755" lon="7.03594">
        <ele>160.3717956543</ele>
        <time>2009-01-25T08:36:14Z</time>
      </trkpt>
      <trkpt lat="43.60763" lon="7.03611">
        <ele>160.09533691406</ele>
        <time>2009-01-25T08:36:20Z</time>
      </trkpt>
      <trkpt lat="43.60773" lon="7.03625">
        <ele>158.76237487793</ele>
        <time>2009-01-25T08:36:25Z</time>
      </trkpt>
      <trkpt lat="43.60783" lon="7.0364">
        <ele>157.44128417969</ele>
        <time>2009-01-25T08:36:30Z</time>
      </trkpt>
      <trkpt lat="43.6079" lon="7.03647">
        <ele>156.78605651856</ele>
        <time>2009-01-25T08:36:34Z</time>
      </trkpt>
      <trkpt lat="43.60792" lon="7.03649">
        <ele>156.64134216309</ele>
        <time>2009-01-25T08:36:35Z</time>
      </trkpt>
      <trkpt lat="43.60803" lon="7.0367">
        <ele>156.28713989258</ele>
        <time>2009-01-25T08:36:42Z</time>
      </trkpt>
      <trkpt lat="43.6081" lon="7.0368">
        <ele>156.33190917969</ele>
        <time>2009-01-25T08:36:46Z</time>
      </trkpt>
      <trkpt lat="43.60812" lon="7.03693">
        <ele>156.70269775391</ele>
        <time>2009-01-25T08:36:50Z</time>
      </trkpt>
      <trkpt lat="43.60822" lon="7.03705">
        <ele>156.77822875977</ele>
        <time>2009-01-25T08:36:55Z</time>
      </trkpt>
      <trkpt lat="43.60833" lon="7.03708">
        <ele>156.48077392578</ele>
        <time>2009-01-25T08:37:00Z</time>
      </trkpt>
      <trkpt lat="43.60844" lon="7.0371">
        <ele>155.98037719727</ele>
        <time>2009-01-25T08:37:04Z</time>
      </trkpt>
      <trkpt lat="43.60854" lon="7.03719">
        <ele>156.02774047852</ele>
        <time>2009-01-25T08:37:09Z</time>
      </trkpt>
      <trkpt lat="43.6087" lon="7.03727">
        <ele>156.14596557617</ele>
        <time>2009-01-25T08:37:14Z</time>
      </trkpt>
      <trkpt lat="43.60874" lon="7.03729">
        <ele>156.31762695312</ele>
        <time>2009-01-25T08:37:17Z</time>
      </trkpt>
      <trkpt lat="43.60886" lon="7.03734">
        <ele>156.40002441406</ele>
        <time>2009-01-25T08:37:23Z</time>
      </trkpt>
      <trkpt lat="43.60897" lon="7.03737">
        <ele>156.31248474121</ele>
        <time>2009-01-25T08:37:28Z</time>
      </trkpt>
      <trkpt lat="43.60899" lon="7.03737">
        <ele>156.23181152344</ele>
        <time>2009-01-25T08:37:29Z</time>
      </trkpt>
      <trkpt lat="43.60912" lon="7.03736">
        <ele>155.63784790039</ele>
        <time>2009-01-25T08:37:35Z</time>
      </trkpt>
      <trkpt lat="43.60917" lon="7.03738">
        <ele>155.67936706543</ele>
        <time>2009-01-25T08:37:38Z</time>
      </trkpt>
      <trkpt lat="43.60932" lon="7.03748">
        <ele>154.51132202148</ele>
        <time>2009-01-25T08:37:44Z</time>
      </trkpt>
      <trkpt lat="43.60946" lon="7.03755">
        <ele>153.2166595459</ele>
        <time>2009-01-25T08:37:49Z</time>
      </trkpt>
      <trkpt lat="43.60959" lon="7.03765">
        <ele>151.46057128906</ele>
        <time>2009-01-25T08:37:54Z</time>
      </trkpt>
      <trkpt lat="43.60969" lon="7.03773">
        <ele>150.19369506836</ele>
        <time>2009-01-25T08:37:58Z</time>
      </trkpt>
      <trkpt lat="43.60971" lon="7.03784">
        <ele>151.59786987305</ele>
        <time>2009-01-25T08:38:02Z</time>
      </trkpt>
      <trkpt lat="43.60976" lon="7.03799">
        <ele>153.99842834473</ele>
        <time>2009-01-25T08:38:07Z</time>
      </trkpt>
      <trkpt lat="43.60973" lon="7.03817">
        <ele>157.97132873535</ele>
        <time>2009-01-25T08:38:13Z</time>
      </trkpt>
      <trkpt lat="43.60968" lon="7.03825">
        <ele>160.0655670166</ele>
        <time>2009-01-25T08:38:18Z</time>
      </trkpt>
      <trkpt lat="43.6097" lon="7.03835">
        <ele>161.31762695312</ele>
        <time>2009-01-25T08:38:22Z</time>
      </trkpt>
      <trkpt lat="43.60971" lon="7.03841">
        <ele>161.64434814453</ele>
        <time>2009-01-25T08:38:24Z</time>
      </trkpt>
      <trkpt lat="43.60972" lon="7.0385">
        <ele>162.26315307617</ele>
        <time>2009-01-25T08:38:27Z</time>
      </trkpt>
      <trkpt lat="43.60974" lon="7.03869">
        <ele>163.61184692383</ele>
        <time>2009-01-25T08:38:34Z</time>
      </trkpt>
      <trkpt lat="43.60977" lon="7.03888">
        <ele>165.34735107422</ele>
        <time>2009-01-25T08:38:40Z</time>
      </trkpt>
      <trkpt lat="43.60979" lon="7.03907">
        <ele>167.54702758789</ele>
        <time>2009-01-25T08:38:46Z</time>
      </trkpt>
      <trkpt lat="43.60985" lon="7.03927">
        <ele>168.4069519043</ele>
        <time>2009-01-25T08:38:53Z</time>
      </trkpt>
      <trkpt lat="43.60985" lon="7.03936">
        <ele>169.05239868164</ele>
        <time>2009-01-25T08:38:56Z</time>
      </trkpt>
      <trkpt lat="43.60989" lon="7.03955">
        <ele>169.86872863769</ele>
        <time>2009-01-25T08:39:03Z</time>
      </trkpt>
      <trkpt lat="43.60991" lon="7.03969">
        <ele>170.61372375488</ele>
        <time>2009-01-25T08:39:07Z</time>
      </trkpt>
      <trkpt lat="43.60991" lon="7.03977">
        <ele>171.45082092285</ele>
        <time>2009-01-25T08:39:10Z</time>
      </trkpt>
      <trkpt lat="43.61001" lon="7.03991">
        <ele>170.83352661133</ele>
        <time>2009-01-25T08:39:15Z</time>
      </trkpt>
      <trkpt lat="43.61009" lon="7.04006">
        <ele>170.72456359863</ele>
        <time>2009-01-25T08:39:21Z</time>
      </trkpt>
      <trkpt lat="43.61012" lon="7.04011">
        <ele>170.57403564453</ele>
        <time>2009-01-25T08:39:23Z</time>
      </trkpt>
      <trkpt lat="43.61015" lon="7.04026">
        <ele>170.78065490723</ele>
        <time>2009-01-25T08:39:28Z</time>
      </trkpt>
      <trkpt lat="43.6102" lon="7.04037">
        <ele>170.37635803223</ele>
        <time>2009-01-25T08:39:32Z</time>
      </trkpt>
      <trkpt lat="43.61024" lon="7.04051">
        <ele>170.41412353516</ele>
        <time>2009-01-25T08:39:37Z</time>
      </trkpt>
      <trkpt lat="43.61034" lon="7.04063">
        <ele>169.15396118164</ele>
        <time>2009-01-25T08:39:42Z</time>
      </trkpt>
      <trkpt lat="43.61045" lon="7.0408">
        <ele>167.84417724609</ele>
        <time>2009-01-25T08:39:49Z</time>
      </trkpt>
      <trkpt lat="43.61053" lon="7.04092">
        <ele>166.67346191406</ele>
        <time>2009-01-25T08:39:54Z</time>
      </trkpt>
      <trkpt lat="43.61061" lon="7.04096">
        <ele>165.35975646973</ele>
        <time>2009-01-25T08:39:58Z</time>
      </trkpt>
      <trkpt lat="43.6107" lon="7.04096">
        <ele>163.32777404785</ele>
        <time>2009-01-25T08:40:02Z</time>
      </trkpt>
      <trkpt lat="43.61082" lon="7.04104">
        <ele>160.64324951172</ele>
        <time>2009-01-25T08:40:08Z</time>
      </trkpt>
      <trkpt lat="43.61082" lon="7.04117">
        <ele>160.21443176269</ele>
        <time>2009-01-25T08:40:12Z</time>
      </trkpt>
      <trkpt lat="43.61078" lon="7.04128">
        <ele>160.89976501465</ele>
        <time>2009-01-25T08:40:15Z</time>
      </trkpt>
      <trkpt lat="43.61073" lon="7.04137">
        <ele>161.92353820801</ele>
        <time>2009-01-25T08:40:18Z</time>
      </trkpt>
      <trkpt lat="43.61071" lon="7.04151">
        <ele>162.24971008301</ele>
        <time>2009-01-25T08:40:22Z</time>
      </trkpt>
      <trkpt lat="43.61073" lon="7.04172">
        <ele>161.71984863281</ele>
        <time>2009-01-25T08:40:28Z</time>
      </trkpt>
      <trkpt lat="43.61071" lon="7.04185">
        <ele>162.10437011719</ele>
        <time>2009-01-25T08:40:32Z</time>
      </trkpt>
      <trkpt lat="43.61073" lon="7.042">
        <ele>161.70404052734</ele>
        <time>2009-01-25T08:40:36Z</time>
      </trkpt>
      <trkpt lat="43.61077" lon="7.04214">
        <ele>161.49034118652</ele>
        <time>2009-01-25T08:40:41Z</time>
      </trkpt>
      <trkpt lat="43.61085" lon="7.04223">
        <ele>160.91177368164</ele>
        <time>2009-01-25T08:40:46Z</time>
      </trkpt>
      <trkpt lat="43.61086" lon="7.04224">
        <ele>160.95310974121</ele>
        <time>2009-01-25T08:40:47Z</time>
      </trkpt>
      <trkpt lat="43.61096" lon="7.04236">
        <ele>161.27738952637</ele>
        <time>2009-01-25T08:40:53Z</time>
      </trkpt>
      <trkpt lat="43.61101" lon="7.0424">
        <ele>161.45190429688</ele>
        <time>2009-01-25T08:40:55Z</time>
      </trkpt>
      <trkpt lat="43.61111" lon="7.0425">
        <ele>161.99649047852</ele>
        <time>2009-01-25T08:41:00Z</time>
      </trkpt>
      <trkpt lat="43.61119" lon="7.04255">
        <ele>161.80252075195</ele>
        <time>2009-01-25T08:41:04Z</time>
      </trkpt>
      <trkpt lat="43.61121" lon="7.04258">
        <ele>161.70639038086</ele>
        <time>2009-01-25T08:41:05Z</time>
      </trkpt>
      <trkpt lat="43.61128" lon="7.0427">
        <ele>161.26864624023</ele>
        <time>2009-01-25T08:41:10Z</time>
      </trkpt>
      <trkpt lat="43.61142" lon="7.0427">
        <ele>161.18356323242</ele>
        <time>2009-01-25T08:41:16Z</time>
      </trkpt>
      <trkpt lat="43.61144" lon="7.04271">
        <ele>161.06167602539</ele>
        <time>2009-01-25T08:41:17Z</time>
      </trkpt>
      <trkpt lat="43.61148" lon="7.04274">
        <ele>160.77500915527</ele>
        <time>2009-01-25T08:41:19Z</time>
      </trkpt>
      <trkpt lat="43.61148" lon="7.04289">
        <ele>160.65570068359</ele>
        <time>2009-01-25T08:41:24Z</time>
      </trkpt>
      <trkpt lat="43.61148" lon="7.04292">
        <ele>160.65570068359</ele>
        <time>2009-01-25T08:41:25Z</time>
      </trkpt>
      <trkpt lat="43.61153" lon="7.04309">
        <ele>160.49090576172</ele>
        <time>2009-01-25T08:41:31Z</time>
      </trkpt>
      <trkpt lat="43.61155" lon="7.04321">
        <ele>160.43597412109</ele>
        <time>2009-01-25T08:41:35Z</time>
      </trkpt>
      <trkpt lat="43.61152" lon="7.04344">
        <ele>160.32402038574</ele>
        <time>2009-01-25T08:41:42Z</time>
      </trkpt>
      <trkpt lat="43.61147" lon="7.04361">
        <ele>160</ele>
        <time>2009-01-25T08:41:48Z</time>
      </trkpt>
      <trkpt lat="43.61139" lon="7.04376">
        <ele>160</ele>
        <time>2009-01-25T08:41:54Z</time>
      </trkpt>
      <trkpt lat="43.61127" lon="7.04383">
        <ele>160</ele>
        <time>2009-01-25T08:41:59Z</time>
      </trkpt>
      <trkpt lat="43.61115" lon="7.04388">
        <ele>160</ele>
        <time>2009-01-25T08:42:05Z</time>
      </trkpt>
      <trkpt lat="43.61103" lon="7.04394">
        <ele>160.28991699219</ele>
        <time>2009-01-25T08:42:10Z</time>
      </trkpt>
      <trkpt lat="43.611" lon="7.04396">
        <ele>160.38604736328</ele>
        <time>2009-01-25T08:42:11Z</time>
      </trkpt>
      <trkpt lat="43.61094" lon="7.04414">
        <ele>160.63323974609</ele>
        <time>2009-01-25T08:42:17Z</time>
      </trkpt>
      <trkpt lat="43.61094" lon="7.04428">
        <ele>160.60577392578</ele>
        <time>2009-01-25T08:42:21Z</time>
      </trkpt>
      <trkpt lat="43.61094" lon="7.04431">
        <ele>160.60577392578</ele>
        <time>2009-01-25T08:42:22Z</time>
      </trkpt>
      <trkpt lat="43.61099" lon="7.04446">
        <ele>160.42724609375</ele>
        <time>2009-01-25T08:42:27Z</time>
      </trkpt>
      <trkpt lat="43.61104" lon="7.0446">
        <ele>160.24871826172</ele>
        <time>2009-01-25T08:42:31Z</time>
      </trkpt>
      <trkpt lat="43.61103" lon="7.04485">
        <ele>160.16827392578</ele>
        <time>2009-01-25T08:42:38Z</time>
      </trkpt>
      <trkpt lat="43.61103" lon="7.04499">
        <ele>160.00798034668</ele>
        <time>2009-01-25T08:42:42Z</time>
      </trkpt>
      <trkpt lat="43.61106" lon="7.04516">
        <ele>160</ele>
        <time>2009-01-25T08:42:47Z</time>
      </trkpt>
      <trkpt lat="43.61111" lon="7.04535">
        <ele>160</ele>
        <time>2009-01-25T08:42:53Z</time>
      </trkpt>
      <trkpt lat="43.61116" lon="7.0455">
        <ele>160</ele>
        <time>2009-01-25T08:42:57Z</time>
      </trkpt>
      <trkpt lat="43.61117" lon="7.04563">
        <ele>160</ele>
        <time>2009-01-25T08:43:01Z</time>
      </trkpt>
      <trkpt lat="43.61119" lon="7.04578">
        <ele>160</ele>
        <time>2009-01-25T08:43:06Z</time>
      </trkpt>
      <trkpt lat="43.61122" lon="7.046">
        <ele>160</ele>
        <time>2009-01-25T08:43:13Z</time>
      </trkpt>
      <trkpt lat="43.6112" lon="7.04616">
        <ele>160</ele>
        <time>2009-01-25T08:43:17Z</time>
      </trkpt>
      <trkpt lat="43.61124" lon="7.0463">
        <ele>160</ele>
        <time>2009-01-25T08:43:21Z</time>
      </trkpt>
      <trkpt lat="43.61131" lon="7.04643">
        <ele>160</ele>
        <time>2009-01-25T08:43:26Z</time>
      </trkpt>
      <trkpt lat="43.61139" lon="7.04655">
        <ele>160</ele>
        <time>2009-01-25T08:43:31Z</time>
      </trkpt>
      <trkpt lat="43.61142" lon="7.04661">
        <ele>160</ele>
        <time>2009-01-25T08:43:33Z</time>
      </trkpt>
      <trkpt lat="43.6115" lon="7.04674">
        <ele>160</ele>
        <time>2009-01-25T08:43:38Z</time>
      </trkpt>
      <trkpt lat="43.61154" lon="7.0468">
        <ele>160</ele>
        <time>2009-01-25T08:43:40Z</time>
      </trkpt>
      <trkpt lat="43.61169" lon="7.04695">
        <ele>160</ele>
        <time>2009-01-25T08:43:47Z</time>
      </trkpt>
      <trkpt lat="43.61182" lon="7.04701">
        <ele>160</ele>
        <time>2009-01-25T08:43:51Z</time>
      </trkpt>
      <trkpt lat="43.61192" lon="7.04708">
        <ele>160</ele>
        <time>2009-01-25T08:43:55Z</time>
      </trkpt>
      <trkpt lat="43.61196" lon="7.04711">
        <ele>159.9719543457</ele>
        <time>2009-01-25T08:43:57Z</time>
      </trkpt>
      <trkpt lat="43.61193" lon="7.04725">
        <ele>159.90074157715</ele>
        <time>2009-01-25T08:44:01Z</time>
      </trkpt>
      <trkpt lat="43.61191" lon="7.04728">
        <ele>159.79260253906</ele>
        <time>2009-01-25T08:44:02Z</time>
      </trkpt>
      <trkpt lat="43.6118" lon="7.04745">
        <ele>159.16430664062</ele>
        <time>2009-01-25T08:44:08Z</time>
      </trkpt>
      <trkpt lat="43.61168" lon="7.04762">
        <ele>157.25991821289</ele>
        <time>2009-01-25T08:44:14Z</time>
      </trkpt>
      <trkpt lat="43.61156" lon="7.04773">
        <ele>154.94009399414</ele>
        <time>2009-01-25T08:44:19Z</time>
      </trkpt>
      <trkpt lat="43.61144" lon="7.04771">
        <ele>154.42510986328</ele>
        <time>2009-01-25T08:44:24Z</time>
      </trkpt>
      <trkpt lat="43.61134" lon="7.0477">
        <ele>153.77966308594</ele>
        <time>2009-01-25T08:44:28Z</time>
      </trkpt>
      <trkpt lat="43.61122" lon="7.04767">
        <ele>153.35394287109</ele>
        <time>2009-01-25T08:44:33Z</time>
      </trkpt>
      <trkpt lat="43.6112" lon="7.04767">
        <ele>153.25094604492</ele>
        <time>2009-01-25T08:44:34Z</time>
      </trkpt>
      <trkpt lat="43.61103" lon="7.04767">
        <ele>150.48986816406</ele>
        <time>2009-01-25T08:44:41Z</time>
      </trkpt>
      <trkpt lat="43.611" lon="7.04766">
        <ele>150.00921630859</ele>
        <time>2009-01-25T08:44:42Z</time>
      </trkpt>
      <trkpt lat="43.61086" lon="7.04758">
        <ele>147.57849121094</ele>
        <time>2009-01-25T08:44:48Z</time>
      </trkpt>
      <trkpt lat="43.61077" lon="7.04753">
        <ele>145.79377746582</ele>
        <time>2009-01-25T08:44:52Z</time>
      </trkpt>
      <trkpt lat="43.61075" lon="7.04751">
        <ele>145.50904846191</ele>
        <time>2009-01-25T08:44:53Z</time>
      </trkpt>
      <trkpt lat="43.61063" lon="7.04744">
        <ele>142.86407470703</ele>
        <time>2009-01-25T08:44:58Z</time>
      </trkpt>
      <trkpt lat="43.61054" lon="7.04734">
        <ele>142.35327148438</ele>
        <time>2009-01-25T08:45:02Z</time>
      </trkpt>
      <trkpt lat="43.61046" lon="7.04725">
        <ele>143.60983276367</ele>
        <time>2009-01-25T08:45:06Z</time>
      </trkpt>
      <trkpt lat="43.61035" lon="7.04734">
        <ele>142.37387084961</ele>
        <time>2009-01-25T08:45:11Z</time>
      </trkpt>
      <trkpt lat="43.61029" lon="7.04739">
        <ele>141.58422851562</ele>
        <time>2009-01-25T08:45:14Z</time>
      </trkpt>
      <trkpt lat="43.6102" lon="7.04744">
        <ele>142.248046875</ele>
        <time>2009-01-25T08:45:18Z</time>
      </trkpt>
      <trkpt lat="43.61012" lon="7.04758">
        <ele>142.25942993164</ele>
        <time>2009-01-25T08:45:24Z</time>
      </trkpt>
      <trkpt lat="43.61003" lon="7.04771">
        <ele>142.34149169922</ele>
        <time>2009-01-25T08:45:30Z</time>
      </trkpt>
      <trkpt lat="43.61001" lon="7.04774">
        <ele>142.3616027832</ele>
        <time>2009-01-25T08:45:31Z</time>
      </trkpt>
      <trkpt lat="43.60993" lon="7.04782">
        <ele>142.73977661133</ele>
        <time>2009-01-25T08:45:36Z</time>
      </trkpt>
      <trkpt lat="43.60983" lon="7.04789">
        <ele>143.90536499023</ele>
        <time>2009-01-25T08:45:41Z</time>
      </trkpt>
      <trkpt lat="43.60977" lon="7.04798">
        <ele>144.44221496582</ele>
        <time>2009-01-25T08:45:45Z</time>
      </trkpt>
      <trkpt lat="43.60973" lon="7.04801">
        <ele>144.96315002441</ele>
        <time>2009-01-25T08:45:47Z</time>
      </trkpt>
      <trkpt lat="43.60965" lon="7.04815">
        <ele>145.90921020508</ele>
        <time>2009-01-25T08:45:53Z</time>
      </trkpt>
      <trkpt lat="43.60958" lon="7.04829">
        <ele>145.98474121094</ele>
        <time>2009-01-25T08:45:58Z</time>
      </trkpt>
      <trkpt lat="43.6095" lon="7.04843">
        <ele>146.50384521484</ele>
        <time>2009-01-25T08:46:04Z</time>
      </trkpt>
      <trkpt lat="43.60943" lon="7.04854">
        <ele>147.11770629883</ele>
        <time>2009-01-25T08:46:09Z</time>
      </trkpt>
      <trkpt lat="43.60932" lon="7.0487">
        <ele>148.86822509766</ele>
        <time>2009-01-25T08:46:16Z</time>
      </trkpt>
      <trkpt lat="43.6092" lon="7.04883">
        <ele>151.58390808106</ele>
        <time>2009-01-25T08:46:22Z</time>
      </trkpt>
      <trkpt lat="43.60911" lon="7.04895">
        <ele>152.04318237305</ele>
        <time>2009-01-25T08:46:27Z</time>
      </trkpt>
      <trkpt lat="43.60909" lon="7.04906">
        <ele>151.50416564941</ele>
        <time>2009-01-25T08:46:31Z</time>
      </trkpt>
      <trkpt lat="43.60907" lon="7.04923">
        <ele>150.7518157959</ele>
        <time>2009-01-25T08:46:36Z</time>
      </trkpt>
      <trkpt lat="43.60905" lon="7.04939">
        <ele>150.07341003418</ele>
        <time>2009-01-25T08:46:41Z</time>
      </trkpt>
      <trkpt lat="43.60902" lon="7.04959">
        <ele>149.25239562988</ele>
        <time>2009-01-25T08:46:47Z</time>
      </trkpt>
      <trkpt lat="43.60898" lon="7.04976">
        <ele>148.72587585449</ele>
        <time>2009-01-25T08:46:52Z</time>
      </trkpt>
      <trkpt lat="43.60893" lon="7.04994">
        <ele>147.97399902344</ele>
        <time>2009-01-25T08:46:58Z</time>
      </trkpt>
      <trkpt lat="43.60883" lon="7.05016">
        <ele>147.66552734375</ele>
        <time>2009-01-25T08:47:04Z</time>
      </trkpt>
      <trkpt lat="43.60882" lon="7.05019">
        <ele>147.56594848633</ele>
        <time>2009-01-25T08:47:05Z</time>
      </trkpt>
      <trkpt lat="43.60873" lon="7.05041">
        <ele>146.90637207031</ele>
        <time>2009-01-25T08:47:12Z</time>
      </trkpt>
      <trkpt lat="43.60868" lon="7.05054">
        <ele>146.55961608887</ele>
        <time>2009-01-25T08:47:16Z</time>
      </trkpt>
      <trkpt lat="43.60864" lon="7.05067">
        <ele>145.98271179199</ele>
        <time>2009-01-25T08:47:20Z</time>
      </trkpt>
      <trkpt lat="43.60862" lon="7.05085">
        <ele>144.89570617676</ele>
        <time>2009-01-25T08:47:25Z</time>
      </trkpt>
      <trkpt lat="43.60862" lon="7.05104">
        <ele>144.20906066894</ele>
        <time>2009-01-25T08:47:30Z</time>
      </trkpt>
      <trkpt lat="43.60859" lon="7.05121">
        <ele>143.66143798828</ele>
        <time>2009-01-25T08:47:35Z</time>
      </trkpt>
      <trkpt lat="43.60858" lon="7.05131">
        <ele>143.27691650391</ele>
        <time>2009-01-25T08:47:38Z</time>
      </trkpt>
      <trkpt lat="43.60853" lon="7.05144">
        <ele>142.64057922363</ele>
        <time>2009-01-25T08:47:42Z</time>
      </trkpt>
      <trkpt lat="43.6084" lon="7.05154">
        <ele>141.90586853027</ele>
        <time>2009-01-25T08:47:48Z</time>
      </trkpt>
      <trkpt lat="43.60827" lon="7.05159">
        <ele>141.47892761231</ele>
        <time>2009-01-25T08:47:53Z</time>
      </trkpt>
      <trkpt lat="43.60814" lon="7.05165">
        <ele>141.10119628906</ele>
        <time>2009-01-25T08:47:58Z</time>
      </trkpt>
      <trkpt lat="43.60802" lon="7.05165">
        <ele>140.7942199707</ele>
        <time>2009-01-25T08:48:03Z</time>
      </trkpt>
      <trkpt lat="43.60786" lon="7.05162">
        <ele>139.90240478516</ele>
        <time>2009-01-25T08:48:09Z</time>
      </trkpt>
      <trkpt lat="43.60775" lon="7.05155">
        <ele>139.39790344238</ele>
        <time>2009-01-25T08:48:14Z</time>
      </trkpt>
      <trkpt lat="43.60769" lon="7.05139">
        <ele>139.40324401856</ele>
        <time>2009-01-25T08:48:20Z</time>
      </trkpt>
      <trkpt lat="43.60765" lon="7.05122">
        <ele>139.63549804688</ele>
        <time>2009-01-25T08:48:25Z</time>
      </trkpt>
      <trkpt lat="43.60759" lon="7.05111">
        <ele>139.33483886719</ele>
        <time>2009-01-25T08:48:29Z</time>
      </trkpt>
      <trkpt lat="43.60756" lon="7.05095">
        <ele>139.95079040527</ele>
        <time>2009-01-25T08:48:34Z</time>
      </trkpt>
      <trkpt lat="43.60756" lon="7.05081">
        <ele>140.65850830078</ele>
        <time>2009-01-25T08:48:38Z</time>
      </trkpt>
      <trkpt lat="43.60753" lon="7.0506">
        <ele>140.44766235352</ele>
        <time>2009-01-25T08:48:44Z</time>
      </trkpt>
      <trkpt lat="43.60752" lon="7.05043">
        <ele>140.27606201172</ele>
        <time>2009-01-25T08:48:49Z</time>
      </trkpt>
      <trkpt lat="43.60751" lon="7.05029">
        <ele>140.10380554199</ele>
        <time>2009-01-25T08:48:53Z</time>
      </trkpt>
      <trkpt lat="43.60747" lon="7.05015">
        <ele>139.47152709961</ele>
        <time>2009-01-25T08:48:57Z</time>
      </trkpt>
      <trkpt lat="43.60743" lon="7.05003">
        <ele>139.00996398926</ele>
        <time>2009-01-25T08:49:01Z</time>
      </trkpt>
      <trkpt lat="43.60743" lon="7.04995">
        <ele>139.08578491211</ele>
        <time>2009-01-25T08:49:04Z</time>
      </trkpt>
      <trkpt lat="43.60746" lon="7.04986">
        <ele>139.49438476562</ele>
        <time>2009-01-25T08:49:08Z</time>
      </trkpt>
      <trkpt lat="43.60749" lon="7.04974">
        <ele>139.89619445801</ele>
        <time>2009-01-25T08:49:13Z</time>
      </trkpt>
      <trkpt lat="43.60747" lon="7.04961">
        <ele>139.69602966309</ele>
        <time>2009-01-25T08:49:17Z</time>
      </trkpt>
      <trkpt lat="43.60744" lon="7.04955">
        <ele>139.52770996094</ele>
        <time>2009-01-25T08:49:19Z</time>
      </trkpt>
      <trkpt lat="43.60744" lon="7.04933">
        <ele>139.63691711426</ele>
        <time>2009-01-25T08:49:25Z</time>
      </trkpt>
      <trkpt lat="43.60744" lon="7.04927">
        <ele>139.6882019043</ele>
        <time>2009-01-25T08:49:27Z</time>
      </trkpt>
      <trkpt lat="43.60746" lon="7.04917">
        <ele>139.85186767578</ele>
        <time>2009-01-25T08:49:31Z</time>
      </trkpt>
      <trkpt lat="43.60751" lon="7.04902">
        <ele>141.34626770019</ele>
        <time>2009-01-25T08:49:38Z</time>
      </trkpt>
      <trkpt lat="43.60756" lon="7.04886">
        <ele>143.70211791992</ele>
        <time>2009-01-25T08:49:44Z</time>
      </trkpt>
      <trkpt lat="43.60763" lon="7.04872">
        <ele>145.92684936523</ele>
        <time>2009-01-25T08:49:50Z</time>
      </trkpt>
      <trkpt lat="43.60765" lon="7.04868">
        <ele>146.54997253418</ele>
        <time>2009-01-25T08:49:52Z</time>
      </trkpt>
      <trkpt lat="43.60766" lon="7.04854">
        <ele>147.32588195801</ele>
        <time>2009-01-25T08:49:56Z</time>
      </trkpt>
      <trkpt lat="43.60771" lon="7.04839">
        <ele>149.13519287109</ele>
        <time>2009-01-25T08:50:01Z</time>
      </trkpt>
      <trkpt lat="43.60774" lon="7.04834">
        <ele>150.00036621094</ele>
        <time>2009-01-25T08:50:03Z</time>
      </trkpt>
      <trkpt lat="43.60777" lon="7.04815">
        <ele>151.53979492188</ele>
        <time>2009-01-25T08:50:09Z</time>
      </trkpt>
      <trkpt lat="43.6078" lon="7.04801">
        <ele>152.01173400879</ele>
        <time>2009-01-25T08:50:14Z</time>
      </trkpt>
      <trkpt lat="43.60781" lon="7.04788">
        <ele>152.06823730469</ele>
        <time>2009-01-25T08:50:19Z</time>
      </trkpt>
      <trkpt lat="43.60786" lon="7.04781">
        <ele>152.27391052246</ele>
        <time>2009-01-25T08:50:23Z</time>
      </trkpt>
      <trkpt lat="43.60788" lon="7.04778">
        <ele>152.34463500977</ele>
        <time>2009-01-25T08:50:24Z</time>
      </trkpt>
      <trkpt lat="43.60794" lon="7.04763">
        <ele>153.11901855469</ele>
        <time>2009-01-25T08:50:30Z</time>
      </trkpt>
      <trkpt lat="43.608" lon="7.04753">
        <ele>153.70439147949</ele>
        <time>2009-01-25T08:50:34Z</time>
      </trkpt>
      <trkpt lat="43.60807" lon="7.04741">
        <ele>154.71751403809</ele>
        <time>2009-01-25T08:50:40Z</time>
      </trkpt>
      <trkpt lat="43.60807" lon="7.04729">
        <ele>155.04438781738</ele>
        <time>2009-01-25T08:50:44Z</time>
      </trkpt>
      <trkpt lat="43.60804" lon="7.04715">
        <ele>154.94857788086</ele>
        <time>2009-01-25T08:50:48Z</time>
      </trkpt>
      <trkpt lat="43.60799" lon="7.04699">
        <ele>154.96354675293</ele>
        <time>2009-01-25T08:50:53Z</time>
      </trkpt>
      <trkpt lat="43.60796" lon="7.04683">
        <ele>155.40106201172</ele>
        <time>2009-01-25T08:50:58Z</time>
      </trkpt>
      <trkpt lat="43.60793" lon="7.04673">
        <ele>155.76669311523</ele>
        <time>2009-01-25T08:51:01Z</time>
      </trkpt>
      <trkpt lat="43.6079" lon="7.04656">
        <ele>156.36923217773</ele>
        <time>2009-01-25T08:51:06Z</time>
      </trkpt>
      <trkpt lat="43.60787" lon="7.04639">
        <ele>156.98721313477</ele>
        <time>2009-01-25T08:51:11Z</time>
      </trkpt>
      <trkpt lat="43.60785" lon="7.04628">
        <ele>157.40435791016</ele>
        <time>2009-01-25T08:51:15Z</time>
      </trkpt>
      <trkpt lat="43.60778" lon="7.0461">
        <ele>158.05667114258</ele>
        <time>2009-01-25T08:51:21Z</time>
      </trkpt>
      <trkpt lat="43.6077" lon="7.04594">
        <ele>158.23277282715</ele>
        <time>2009-01-25T08:51:27Z</time>
      </trkpt>
      <trkpt lat="43.60765" lon="7.04581">
        <ele>158.60531616211</ele>
        <time>2009-01-25T08:51:32Z</time>
      </trkpt>
      <trkpt lat="43.60758" lon="7.04571">
        <ele>158.7237701416</ele>
        <time>2009-01-25T08:51:37Z</time>
      </trkpt>
      <trkpt lat="43.60749" lon="7.04568">
        <ele>158.55499267578</ele>
        <time>2009-01-25T08:51:41Z</time>
      </trkpt>
      <trkpt lat="43.60736" lon="7.04565">
        <ele>158.47418212891</ele>
        <time>2009-01-25T08:51:47Z</time>
      </trkpt>
      <trkpt lat="43.60734" lon="7.04565">
        <ele>158.47793579102</ele>
        <time>2009-01-25T08:51:48Z</time>
      </trkpt>
      <trkpt lat="43.60723" lon="7.04548">
        <ele>159.28997802734</ele>
        <time>2009-01-25T08:51:55Z</time>
      </trkpt>
      <trkpt lat="43.60722" lon="7.04538">
        <ele>159.60531616211</ele>
        <time>2009-01-25T08:51:58Z</time>
      </trkpt>
      <trkpt lat="43.6072" lon="7.04528">
        <ele>159.91430664062</ele>
        <time>2009-01-25T08:52:02Z</time>
      </trkpt>
      <trkpt lat="43.60715" lon="7.04515">
        <ele>160.93238830566</ele>
        <time>2009-01-25T08:52:07Z</time>
      </trkpt>
      <trkpt lat="43.60707" lon="7.04511">
        <ele>160.62092590332</ele>
        <time>2009-01-25T08:52:11Z</time>
      </trkpt>
      <trkpt lat="43.60703" lon="7.04511">
        <ele>160.25233459473</ele>
        <time>2009-01-25T08:52:13Z</time>
      </trkpt>
      <trkpt lat="43.6069" lon="7.04497">
        <ele>160.30160522461</ele>
        <time>2009-01-25T08:52:20Z</time>
      </trkpt>
      <trkpt lat="43.60687" lon="7.04495">
        <ele>160.42753601074</ele>
        <time>2009-01-25T08:52:21Z</time>
      </trkpt>
      <trkpt lat="43.60673" lon="7.04481">
        <ele>160.52624511719</ele>
        <time>2009-01-25T08:52:29Z</time>
      </trkpt>
      <trkpt lat="43.60669" lon="7.04475">
        <ele>160.32995605469</ele>
        <time>2009-01-25T08:52:32Z</time>
      </trkpt>
      <trkpt lat="43.60664" lon="7.04471">
        <ele>160.1628112793</ele>
        <time>2009-01-25T08:52:35Z</time>
      </trkpt>
      <trkpt lat="43.60657" lon="7.04458">
        <ele>161.90274047852</ele>
        <time>2009-01-25T08:52:41Z</time>
      </trkpt>
      <trkpt lat="43.6065" lon="7.04449">
        <ele>162.82247924805</ele>
        <time>2009-01-25T08:52:45Z</time>
      </trkpt>
      <trkpt lat="43.60647" lon="7.04439">
        <ele>164.24987792969</ele>
        <time>2009-01-25T08:52:49Z</time>
      </trkpt>
      <trkpt lat="43.60642" lon="7.04427">
        <ele>166.19995117188</ele>
        <time>2009-01-25T08:52:53Z</time>
      </trkpt>
      <trkpt lat="43.60634" lon="7.04411">
        <ele>169.13487243652</ele>
        <time>2009-01-25T08:52:59Z</time>
      </trkpt>
      <trkpt lat="43.60627" lon="7.04399">
        <ele>170.93731689453</ele>
        <time>2009-01-25T08:53:04Z</time>
      </trkpt>
      <trkpt lat="43.60619" lon="7.0438">
        <ele>173.49127197266</ele>
        <time>2009-01-25T08:53:10Z</time>
      </trkpt>
      <trkpt lat="43.60615" lon="7.04366">
        <ele>174.69604492188</ele>
        <time>2009-01-25T08:53:15Z</time>
      </trkpt>
      <trkpt lat="43.60614" lon="7.04355">
        <ele>175.46109008789</ele>
        <time>2009-01-25T08:53:19Z</time>
      </trkpt>
      <trkpt lat="43.60613" lon="7.04352">
        <ele>175.67216491699</ele>
        <time>2009-01-25T08:53:20Z</time>
      </trkpt>
      <trkpt lat="43.60605" lon="7.04336">
        <ele>176.40713500977</ele>
        <time>2009-01-25T08:53:26Z</time>
      </trkpt>
      <trkpt lat="43.606" lon="7.04326">
        <ele>176.4426574707</ele>
        <time>2009-01-25T08:53:30Z</time>
      </trkpt>
      <trkpt lat="43.60593" lon="7.04314">
        <ele>176.4031829834</ele>
        <time>2009-01-25T08:53:35Z</time>
      </trkpt>
      <trkpt lat="43.60596" lon="7.04307">
        <ele>176.91130065918</ele>
        <time>2009-01-25T08:53:39Z</time>
      </trkpt>
      <trkpt lat="43.60604" lon="7.04309">
        <ele>177.38336181641</ele>
        <time>2009-01-25T08:53:44Z</time>
      </trkpt>
      <trkpt lat="43.60608" lon="7.04316">
        <ele>177.38165283203</ele>
        <time>2009-01-25T08:53:47Z</time>
      </trkpt>
      <trkpt lat="43.60616" lon="7.0433">
        <ele>177.50332641602</ele>
        <time>2009-01-25T08:53:54Z</time>
      </trkpt>
      <trkpt lat="43.60619" lon="7.04332">
        <ele>177.63488769531</ele>
        <time>2009-01-25T08:53:56Z</time>
      </trkpt>
      <trkpt lat="43.60625" lon="7.04345">
        <ele>176.76564025879</ele>
        <time>2009-01-25T08:54:01Z</time>
      </trkpt>
      <trkpt lat="43.60627" lon="7.04348">
        <ele>176.47892761231</ele>
        <time>2009-01-25T08:54:02Z</time>
      </trkpt>
      <trkpt lat="43.6063" lon="7.04354">
        <ele>175.92021179199</ele>
        <time>2009-01-25T08:54:05Z</time>
      </trkpt>
      <trkpt lat="43.60634" lon="7.04352">
        <ele>176.23706054688</ele>
        <time>2009-01-25T08:54:08Z</time>
      </trkpt>
      <trkpt lat="43.60633" lon="7.04338">
        <ele>177.95426940918</ele>
        <time>2009-01-25T08:54:14Z</time>
      </trkpt>
      <trkpt lat="43.60633" lon="7.04323">
        <ele>179.19123840332</ele>
        <time>2009-01-25T08:54:19Z</time>
      </trkpt>
      <trkpt lat="43.60636" lon="7.04313">
        <ele>180.20712280273</ele>
        <time>2009-01-25T08:54:23Z</time>
      </trkpt>
      <trkpt lat="43.60638" lon="7.04308">
        <ele>180.71641540527</ele>
        <time>2009-01-25T08:54:25Z</time>
      </trkpt>
      <trkpt lat="43.60641" lon="7.04299">
        <ele>181</ele>
        <time>2009-01-25T08:54:29Z</time>
      </trkpt>
      <trkpt lat="43.60648" lon="7.04284">
        <ele>181</ele>
        <time>2009-01-25T08:54:35Z</time>
      </trkpt>
      <trkpt lat="43.60651" lon="7.04271">
        <ele>181.13127136231</ele>
        <time>2009-01-25T08:54:39Z</time>
      </trkpt>
      <trkpt lat="43.60651" lon="7.04261">
        <ele>181.33415222168</ele>
        <time>2009-01-25T08:54:43Z</time>
      </trkpt>
      <trkpt lat="43.6065" lon="7.04253">
        <ele>181.51679992676</ele>
        <time>2009-01-25T08:54:45Z</time>
      </trkpt>
      <trkpt lat="43.60657" lon="7.04254">
        <ele>181.31015014648</ele>
        <time>2009-01-25T08:54:49Z</time>
      </trkpt>
      <trkpt lat="43.60666" lon="7.04267">
        <ele>181.01115417481</ele>
        <time>2009-01-25T08:54:56Z</time>
      </trkpt>
      <trkpt lat="43.60671" lon="7.04279">
        <ele>181</ele>
        <time>2009-01-25T08:55:02Z</time>
      </trkpt>
      <trkpt lat="43.60678" lon="7.04277">
        <ele>181</ele>
        <time>2009-01-25T08:55:06Z</time>
      </trkpt>
      <trkpt lat="43.6068" lon="7.04264">
        <ele>181</ele>
        <time>2009-01-25T08:55:11Z</time>
      </trkpt>
      <trkpt lat="43.60678" lon="7.04252">
        <ele>181</ele>
        <time>2009-01-25T08:55:15Z</time>
      </trkpt>
      <trkpt lat="43.60675" lon="7.04238">
        <ele>181.29606628418</ele>
        <time>2009-01-25T08:55:19Z</time>
      </trkpt>
      <trkpt lat="43.6067" lon="7.04219">
        <ele>181.89050292969</ele>
        <time>2009-01-25T08:55:26Z</time>
      </trkpt>
      <trkpt lat="43.60661" lon="7.04204">
        <ele>182.14410400391</ele>
        <time>2009-01-25T08:55:32Z</time>
      </trkpt>
      <trkpt lat="43.6065" lon="7.04198">
        <ele>182.50961303711</ele>
        <time>2009-01-25T08:55:37Z</time>
      </trkpt>
      <trkpt lat="43.60642" lon="7.04197">
        <ele>182.80513000488</ele>
        <time>2009-01-25T08:55:40Z</time>
      </trkpt>
      <trkpt lat="43.60635" lon="7.04185">
        <ele>182.90525817871</ele>
        <time>2009-01-25T08:55:45Z</time>
      </trkpt>
      <trkpt lat="43.60633" lon="7.0418">
        <ele>182.90800476074</ele>
        <time>2009-01-25T08:55:47Z</time>
      </trkpt>
      <trkpt lat="43.60628" lon="7.04165">
        <ele>183.07781982422</ele>
        <time>2009-01-25T08:55:52Z</time>
      </trkpt>
      <trkpt lat="43.60619" lon="7.04143">
        <ele>183.84342956543</ele>
        <time>2009-01-25T08:55:58Z</time>
      </trkpt>
      <trkpt lat="43.60614" lon="7.04124">
        <ele>184.48391723633</ele>
        <time>2009-01-25T08:56:03Z</time>
      </trkpt>
      <trkpt lat="43.60614" lon="7.04118">
        <ele>184.66926574707</ele>
        <time>2009-01-25T08:56:05Z</time>
      </trkpt>
      <trkpt lat="43.60607" lon="7.041">
        <ele>184.81744384766</ele>
        <time>2009-01-25T08:56:11Z</time>
      </trkpt>
      <trkpt lat="43.606" lon="7.04082">
        <ele>184.76490783691</ele>
        <time>2009-01-25T08:56:16Z</time>
      </trkpt>
      <trkpt lat="43.60595" lon="7.04066">
        <ele>184.61999511719</ele>
        <time>2009-01-25T08:56:20Z</time>
      </trkpt>
      <trkpt lat="43.60593" lon="7.04052">
        <ele>184.93144226074</ele>
        <time>2009-01-25T08:56:24Z</time>
      </trkpt>
      <trkpt lat="43.60587" lon="7.04041">
        <ele>185.22273254394</ele>
        <time>2009-01-25T08:56:29Z</time>
      </trkpt>
      <trkpt lat="43.60582" lon="7.04028">
        <ele>185.80928039551</ele>
        <time>2009-01-25T08:56:33Z</time>
      </trkpt>
      <trkpt lat="43.60579" lon="7.04025">
        <ele>185.46696472168</ele>
        <time>2009-01-25T08:56:35Z</time>
      </trkpt>
      <trkpt lat="43.60567" lon="7.04013">
        <ele>184.47520446777</ele>
        <time>2009-01-25T08:56:41Z</time>
      </trkpt>
      <trkpt lat="43.60557" lon="7.04005">
        <ele>183.79515075684</ele>
        <time>2009-01-25T08:56:45Z</time>
      </trkpt>
    </trkseg>
  </trk>
</gpx>